sensor_id;sensor_type;location;lat;lon;timestamp;P1;durP1;ratioP1;P2;durP2;ratioP2
6693;SDS011;3384;42.628;23.380;2023-09-19T00:01:39;10.30;;;9.90;;
6693;SDS011;3384;42.628;23.380;2023-09-19T00:04:06;10.97;;;10.47;;
6693;SDS011;3384;42.628;23.380;2023-09-19T00:06:36;14.33;;;10.77;;
6693;SDS011;3384;42.628;23.380;2023-09-19T00:09:03;11.00;;;10.40;;
6693;SDS011;3384;42.628;23.380;2023-09-19T00:11:30;11.17;;;10.77;;
6693;SDS011;3384;42.628;23.380;2023-09-19T00:13:57;11.23;;;10.30;;
6693;SDS011;3384;42.628;23.380;2023-09-19T00:16:25;10.80;;;10.20;;
6693;SDS011;3384;42.628;23.380;2023-09-19T00:18:52;10.07;;;9.87;;
6693;SDS011;3384;42.628;23.380;2023-09-19T00:21:20;9.97;;;9.67;;
6693;SDS011;3384;42.628;23.380;2023-09-19T00:23:48;10.57;;;9.90;;
6693;SDS011;3384;42.628;23.380;2023-09-19T00:26:16;10.77;;;10.23;;
6693;SDS011;3384;42.628;23.380;2023-09-19T00:28:46;10.00;;;9.60;;
6693;SDS011;3384;42.628;23.380;2023-09-19T00:31:13;10.67;;;10.00;;
6693;SDS011;3384;42.628;23.380;2023-09-19T00:33:39;10.20;;;9.80;;
6693;SDS011;3384;42.628;23.380;2023-09-19T00:36:06;10.93;;;9.97;;
6693;SDS011;3384;42.628;23.380;2023-09-19T00:38:33;9.40;;;8.90;;
6693;SDS011;3384;42.628;23.380;2023-09-19T00:41:03;9.43;;;9.13;;
6693;SDS011;3384;42.628;23.380;2023-09-19T00:43:30;9.70;;;9.30;;
6693;SDS011;3384;42.628;23.380;2023-09-19T00:45:59;10.90;;;10.20;;
6693;SDS011;3384;42.628;23.380;2023-09-19T00:48:28;15.03;;;10.60;;
6693;SDS011;3384;42.628;23.380;2023-09-19T00:50:55;9.77;;;9.43;;
6693;SDS011;3384;42.628;23.380;2023-09-19T00:53:26;8.87;;;8.20;;
6693;SDS011;3384;42.628;23.380;2023-09-19T00:55:53;8.97;;;8.77;;
6693;SDS011;3384;42.628;23.380;2023-09-19T00:58:22;9.73;;;8.90;;
6693;SDS011;3384;42.628;23.380;2023-09-19T01:00:49;9.00;;;8.70;;
6693;SDS011;3384;42.628;23.380;2023-09-19T01:03:18;9.17;;;8.80;;
6693;SDS011;3384;42.628;23.380;2023-09-19T01:05:45;8.90;;;8.10;;
6693;SDS011;3384;42.628;23.380;2023-09-19T01:08:13;8.90;;;8.60;;
6693;SDS011;3384;42.628;23.380;2023-09-19T01:10:52;9.63;;;9.00;;
6693;SDS011;3384;42.628;23.380;2023-09-19T01:13:26;8.53;;;8.13;;
6693;SDS011;3384;42.628;23.380;2023-09-19T01:16:03;8.80;;;8.50;;
6693;SDS011;3384;42.628;23.380;2023-09-19T01:18:40;7.80;;;7.20;;
6693;SDS011;3384;42.628;23.380;2023-09-19T01:21:15;9.87;;;8.90;;
6693;SDS011;3384;42.628;23.380;2023-09-19T01:26:49;9.63;;;8.80;;
6693;SDS011;3384;42.628;23.380;2023-09-19T01:29:40;10.87;;;10.17;;
6693;SDS011;3384;42.628;23.380;2023-09-19T01:32:13;10.17;;;9.17;;
6693;SDS011;3384;42.628;23.380;2023-09-19T01:34:46;7.90;;;7.60;;
6693;SDS011;3384;42.628;23.380;2023-09-19T01:37:15;9.60;;;9.10;;
6693;SDS011;3384;42.628;23.380;2023-09-19T01:39:45;9.57;;;8.90;;
6693;SDS011;3384;42.628;23.380;2023-09-19T01:42:18;9.83;;;7.93;;
6693;SDS011;3384;42.628;23.380;2023-09-19T01:44:51;8.67;;;8.37;;
6693;SDS011;3384;42.628;23.380;2023-09-19T01:47:28;9.73;;;8.67;;
6693;SDS011;3384;42.628;23.380;2023-09-19T01:50:01;8.60;;;8.10;;
6693;SDS011;3384;42.628;23.380;2023-09-19T01:52:36;8.37;;;8.07;;
6693;SDS011;3384;42.628;23.380;2023-09-19T01:55:09;9.83;;;8.73;;
6693;SDS011;3384;42.628;23.380;2023-09-19T01:57:41;9.07;;;8.57;;
6693;SDS011;3384;42.628;23.380;2023-09-19T02:00:15;8.63;;;8.30;;
6693;SDS011;3384;42.628;23.380;2023-09-19T02:02:46;7.83;;;7.40;;
6693;SDS011;3384;42.628;23.380;2023-09-19T02:05:16;9.20;;;8.50;;
6693;SDS011;3384;42.628;23.380;2023-09-19T02:07:49;9.30;;;8.57;;
6693;SDS011;3384;42.628;23.380;2023-09-19T02:10:16;8.27;;;7.97;;
6693;SDS011;3384;42.628;23.380;2023-09-19T02:12:43;7.87;;;7.37;;
6693;SDS011;3384;42.628;23.380;2023-09-19T02:15:11;8.10;;;7.83;;
6693;SDS011;3384;42.628;23.380;2023-09-19T02:17:41;9.30;;;8.47;;
6693;SDS011;3384;42.628;23.380;2023-09-19T02:20:10;9.43;;;8.93;;
6693;SDS011;3384;42.628;23.380;2023-09-19T02:22:40;7.97;;;7.63;;
6693;SDS011;3384;42.628;23.380;2023-09-19T02:25:07;8.60;;;8.20;;
6693;SDS011;3384;42.628;23.380;2023-09-19T02:27:34;8.57;;;8.07;;
6693;SDS011;3384;42.628;23.380;2023-09-19T02:30:02;8.50;;;8.10;;
6693;SDS011;3384;42.628;23.380;2023-09-19T02:32:31;9.23;;;8.53;;
6693;SDS011;3384;42.628;23.380;2023-09-19T02:35:01;9.07;;;8.40;;
6693;SDS011;3384;42.628;23.380;2023-09-19T02:37:31;7.83;;;7.53;;
6693;SDS011;3384;42.628;23.380;2023-09-19T02:40:00;8.33;;;7.63;;
6693;SDS011;3384;42.628;23.380;2023-09-19T02:42:43;8.87;;;8.43;;
6693;SDS011;3384;42.628;23.380;2023-09-19T02:45:14;9.77;;;8.80;;
6693;SDS011;3384;42.628;23.380;2023-09-19T02:47:42;8.03;;;7.63;;
6693;SDS011;3384;42.628;23.380;2023-09-19T02:50:09;9.90;;;8.97;;
6693;SDS011;3384;42.628;23.380;2023-09-19T02:52:40;8.70;;;7.93;;
6693;SDS011;3384;42.628;23.380;2023-09-19T02:55:09;7.53;;;7.23;;
6693;SDS011;3384;42.628;23.380;2023-09-19T02:57:37;8.43;;;7.10;;
6693;SDS011;3384;42.628;23.380;2023-09-19T03:00:06;7.30;;;6.97;;
6693;SDS011;3384;42.628;23.380;2023-09-19T03:02:35;7.40;;;7.00;;
6693;SDS011;3384;42.628;23.380;2023-09-19T03:05:03;7.00;;;6.70;;
6693;SDS011;3384;42.628;23.380;2023-09-19T03:07:32;6.93;;;6.43;;
6693;SDS011;3384;42.628;23.380;2023-09-19T03:10:01;7.10;;;6.80;;
6693;SDS011;3384;42.628;23.380;2023-09-19T03:12:28;7.00;;;6.60;;
6693;SDS011;3384;42.628;23.380;2023-09-19T03:14:55;7.03;;;6.47;;
6693;SDS011;3384;42.628;23.380;2023-09-19T03:17:22;7.07;;;6.70;;
6693;SDS011;3384;42.628;23.380;2023-09-19T03:19:52;6.83;;;6.40;;
6693;SDS011;3384;42.628;23.380;2023-09-19T03:22:19;6.57;;;6.20;;
6693;SDS011;3384;42.628;23.380;2023-09-19T03:24:47;6.50;;;6.10;;
6693;SDS011;3384;42.628;23.380;2023-09-19T03:27:15;7.40;;;7.00;;
6693;SDS011;3384;42.628;23.380;2023-09-19T03:29:42;6.30;;;6.10;;
6693;SDS011;3384;42.628;23.380;2023-09-19T03:32:09;8.83;;;7.23;;
6693;SDS011;3384;42.628;23.380;2023-09-19T03:34:37;6.27;;;6.00;;
6693;SDS011;3384;42.628;23.380;2023-09-19T03:37:05;6.77;;;6.20;;
6693;SDS011;3384;42.628;23.380;2023-09-19T03:39:33;6.60;;;6.20;;
6693;SDS011;3384;42.628;23.380;2023-09-19T03:42:00;6.57;;;6.13;;
6693;SDS011;3384;42.628;23.380;2023-09-19T03:44:30;6.67;;;6.37;;
6693;SDS011;3384;42.628;23.380;2023-09-19T03:46:57;6.40;;;6.10;;
6693;SDS011;3384;42.628;23.380;2023-09-19T03:49:24;6.43;;;6.17;;
6693;SDS011;3384;42.628;23.380;2023-09-19T03:51:51;9.50;;;6.50;;
6693;SDS011;3384;42.628;23.380;2023-09-19T03:54:18;6.77;;;6.50;;
6693;SDS011;3384;42.628;23.380;2023-09-19T03:56:44;6.87;;;6.47;;
6693;SDS011;3384;42.628;23.380;2023-09-19T03:59:11;7.13;;;6.63;;
6693;SDS011;3384;42.628;23.380;2023-09-19T04:01:40;7.57;;;6.83;;
6693;SDS011;3384;42.628;23.380;2023-09-19T04:04:08;6.70;;;6.27;;
6693;SDS011;3384;42.628;23.380;2023-09-19T04:06:35;7.13;;;6.77;;
6693;SDS011;3384;42.628;23.380;2023-09-19T04:09:02;8.10;;;7.07;;
6693;SDS011;3384;42.628;23.380;2023-09-19T04:11:32;8.03;;;7.23;;
6693;SDS011;3384;42.628;23.380;2023-09-19T04:13:59;7.03;;;6.50;;
6693;SDS011;3384;42.628;23.380;2023-09-19T04:16:29;7.73;;;7.23;;
6693;SDS011;3384;42.628;23.380;2023-09-19T04:18:57;7.67;;;7.10;;
6693;SDS011;3384;42.628;23.380;2023-09-19T04:21:24;7.80;;;7.30;;
6693;SDS011;3384;42.628;23.380;2023-09-19T04:23:51;7.50;;;7.20;;
6693;SDS011;3384;42.628;23.380;2023-09-19T04:26:18;8.67;;;8.03;;
6693;SDS011;3384;42.628;23.380;2023-09-19T04:28:46;10.83;;;7.50;;
6693;SDS011;3384;42.628;23.380;2023-09-19T04:31:13;11.53;;;10.27;;
6693;SDS011;3384;42.628;23.380;2023-09-19T04:33:41;10.13;;;9.10;;
6693;SDS011;3384;42.628;23.380;2023-09-19T04:36:10;8.73;;;8.33;;
6693;SDS011;3384;42.628;23.380;2023-09-19T04:38:38;20.93;;;10.20;;
6693;SDS011;3384;42.628;23.380;2023-09-19T04:41:06;8.80;;;8.23;;
6693;SDS011;3384;42.628;23.380;2023-09-19T04:43:33;12.70;;;9.43;;
6693;SDS011;3384;42.628;23.380;2023-09-19T04:46:00;9.57;;;8.77;;
6693;SDS011;3384;42.628;23.380;2023-09-19T04:48:28;11.73;;;10.50;;
6693;SDS011;3384;42.628;23.380;2023-09-19T04:50:55;13.23;;;12.00;;
6693;SDS011;3384;42.628;23.380;2023-09-19T04:53:26;20.77;;;14.07;;
6693;SDS011;3384;42.628;23.380;2023-09-19T04:55:53;22.60;;;10.70;;
6693;SDS011;3384;42.628;23.380;2023-09-19T04:58:20;11.80;;;10.70;;
6693;SDS011;3384;42.628;23.380;2023-09-19T05:00:59;13.47;;;12.37;;
6693;SDS011;3384;42.628;23.380;2023-09-19T05:03:28;25.07;;;15.20;;
6693;SDS011;3384;42.628;23.380;2023-09-19T05:05:55;25.03;;;17.97;;
6693;SDS011;3384;42.628;23.380;2023-09-19T05:08:27;14.33;;;10.23;;
6693;SDS011;3384;42.628;23.380;2023-09-19T05:10:56;11.63;;;8.83;;
6693;SDS011;3384;42.628;23.380;2023-09-19T05:13:22;14.13;;;7.70;;
6693;SDS011;3384;42.628;23.380;2023-09-19T05:15:49;7.67;;;7.27;;
6693;SDS011;3384;42.628;23.380;2023-09-19T05:18:16;8.30;;;7.77;;
6693;SDS011;3384;42.628;23.380;2023-09-19T05:20:47;7.73;;;7.17;;
6693;SDS011;3384;42.628;23.380;2023-09-19T05:23:14;9.00;;;8.13;;
6693;SDS011;3384;42.628;23.380;2023-09-19T05:25:43;12.33;;;7.30;;
6693;SDS011;3384;42.628;23.380;2023-09-19T05:28:12;10.27;;;7.53;;
6693;SDS011;3384;42.628;23.380;2023-09-19T05:30:42;7.33;;;6.93;;
6693;SDS011;3384;42.628;23.380;2023-09-19T05:45:16;10.03;;;9.20;;
6693;SDS011;3384;42.628;23.380;2023-09-19T05:47:49;10.10;;;8.70;;
6693;SDS011;3384;42.628;23.380;2023-09-19T05:50:20;8.37;;;7.97;;
6693;SDS011;3384;42.628;23.380;2023-09-19T05:52:59;14.53;;;7.93;;
6693;SDS011;3384;42.628;23.380;2023-09-19T05:58:01;9.80;;;8.90;;
6693;SDS011;3384;42.628;23.380;2023-09-19T06:00:30;9.37;;;8.77;;
6693;SDS011;3384;42.628;23.380;2023-09-19T06:17:46;10.50;;;7.33;;
6693;SDS011;3384;42.628;23.380;2023-09-19T06:20:14;11.57;;;8.80;;
6693;SDS011;3384;42.628;23.380;2023-09-19T06:22:45;9.70;;;9.00;;
6693;SDS011;3384;42.628;23.380;2023-09-19T06:25:15;10.93;;;9.10;;
6693;SDS011;3384;42.628;23.380;2023-09-19T06:27:44;8.97;;;8.57;;
6693;SDS011;3384;42.628;23.380;2023-09-19T06:30:13;8.60;;;8.30;;
6693;SDS011;3384;42.628;23.380;2023-09-19T06:32:43;9.47;;;8.57;;
6693;SDS011;3384;42.628;23.380;2023-09-19T06:35:13;12.43;;;10.00;;
6693;SDS011;3384;42.628;23.380;2023-09-19T06:37:42;9.53;;;8.90;;
6693;SDS011;3384;42.628;23.380;2023-09-19T06:40:10;9.30;;;8.50;;
6693;SDS011;3384;42.628;23.380;2023-09-19T06:42:41;10.03;;;9.23;;
6693;SDS011;3384;42.628;23.380;2023-09-19T06:45:11;9.90;;;9.43;;
6693;SDS011;3384;42.628;23.380;2023-09-19T06:47:43;11.17;;;10.27;;
6693;SDS011;3384;42.628;23.380;2023-09-19T06:50:13;10.07;;;9.57;;
6693;SDS011;3384;42.628;23.380;2023-09-19T06:52:44;10.30;;;9.40;;
6693;SDS011;3384;42.628;23.380;2023-09-19T06:55:14;10.17;;;9.33;;
6693;SDS011;3384;42.628;23.380;2023-09-19T06:57:41;10.43;;;9.53;;
6693;SDS011;3384;42.628;23.380;2023-09-19T07:00:11;10.80;;;10.00;;
6693;SDS011;3384;42.628;23.380;2023-09-19T07:02:43;24.47;;;11.13;;
6693;SDS011;3384;42.628;23.380;2023-09-19T07:05:12;11.07;;;9.93;;
6693;SDS011;3384;42.628;23.380;2023-09-19T07:07:42;9.90;;;8.63;;
6693;SDS011;3384;42.628;23.380;2023-09-19T07:10:10;10.00;;;9.17;;
6693;SDS011;3384;42.628;23.380;2023-09-19T07:12:38;10.70;;;9.67;;
6693;SDS011;3384;42.628;23.380;2023-09-19T07:15:06;12.93;;;9.20;;
6693;SDS011;3384;42.628;23.380;2023-09-19T07:17:33;9.30;;;8.93;;
6693;SDS011;3384;42.628;23.380;2023-09-19T07:20:00;10.37;;;9.47;;
6693;SDS011;3384;42.628;23.380;2023-09-19T07:22:34;9.60;;;9.20;;
6693;SDS011;3384;42.628;23.380;2023-09-19T07:25:04;11.17;;;9.80;;
6693;SDS011;3384;42.628;23.380;2023-09-19T07:27:32;9.90;;;9.60;;
6693;SDS011;3384;42.628;23.380;2023-09-19T07:29:59;12.07;;;9.10;;
6693;SDS011;3384;42.628;23.380;2023-09-19T07:32:26;10.37;;;9.87;;
6693;SDS011;3384;42.628;23.380;2023-09-19T07:34:54;11.30;;;10.63;;
6693;SDS011;3384;42.628;23.380;2023-09-19T07:37:21;12.67;;;11.60;;
6693;SDS011;3384;42.628;23.380;2023-09-19T07:39:52;11.47;;;10.87;;
6693;SDS011;3384;42.628;23.380;2023-09-19T07:42:19;12.00;;;11.13;;
6693;SDS011;3384;42.628;23.380;2023-09-19T07:44:46;10.87;;;9.97;;
6693;SDS011;3384;42.628;23.380;2023-09-19T07:47:16;17.40;;;11.07;;
6693;SDS011;3384;42.628;23.380;2023-09-19T07:49:43;12.37;;;11.47;;
6693;SDS011;3384;42.628;23.380;2023-09-19T07:52:14;12.93;;;11.97;;
6693;SDS011;3384;42.628;23.380;2023-09-19T07:54:41;12.53;;;11.90;;
6693;SDS011;3384;42.628;23.380;2023-09-19T07:57:10;13.20;;;11.87;;
6693;SDS011;3384;42.628;23.380;2023-09-19T07:59:40;11.63;;;10.90;;
6693;SDS011;3384;42.628;23.380;2023-09-19T08:02:07;11.63;;;10.60;;
6693;SDS011;3384;42.628;23.380;2023-09-19T08:04:40;11.90;;;11.13;;
6693;SDS011;3384;42.628;23.380;2023-09-19T08:07:08;12.90;;;12.10;;
6693;SDS011;3384;42.628;23.380;2023-09-19T08:09:36;11.63;;;10.90;;
6693;SDS011;3384;42.628;23.380;2023-09-19T08:12:04;17.00;;;11.77;;
6693;SDS011;3384;42.628;23.380;2023-09-19T08:14:34;13.17;;;12.00;;
6693;SDS011;3384;42.628;23.380;2023-09-19T08:17:01;19.43;;;12.97;;
6693;SDS011;3384;42.628;23.380;2023-09-19T08:19:30;13.07;;;12.27;;
6693;SDS011;3384;42.628;23.380;2023-09-19T08:21:58;12.73;;;11.83;;
6693;SDS011;3384;42.628;23.380;2023-09-19T08:24:25;13.07;;;12.17;;
6693;SDS011;3384;42.628;23.380;2023-09-19T08:26:54;13.37;;;11.97;;
6693;SDS011;3384;42.628;23.380;2023-09-19T08:29:21;14.23;;;13.10;;
6693;SDS011;3384;42.628;23.380;2023-09-19T08:31:54;14.97;;;13.37;;
6693;SDS011;3384;42.628;23.380;2023-09-19T08:34:21;24.87;;;12.97;;
6693;SDS011;3384;42.628;23.380;2023-09-19T08:36:50;14.23;;;13.00;;
6693;SDS011;3384;42.628;23.380;2023-09-19T08:39:17;12.93;;;12.10;;
6693;SDS011;3384;42.628;23.380;2023-09-19T08:41:45;13.03;;;12.33;;
6693;SDS011;3384;42.628;23.380;2023-09-19T08:44:12;14.17;;;13.10;;
6693;SDS011;3384;42.628;23.380;2023-09-19T08:46:40;12.90;;;11.90;;
6693;SDS011;3384;42.628;23.380;2023-09-19T08:49:13;14.37;;;12.90;;
6693;SDS011;3384;42.628;23.380;2023-09-19T08:51:47;12.97;;;12.37;;
6693;SDS011;3384;42.628;23.380;2023-09-19T08:54:25;13.33;;;12.57;;
6693;SDS011;3384;42.628;23.380;2023-09-19T08:56:55;15.30;;;14.00;;
6693;SDS011;3384;42.628;23.380;2023-09-19T08:59:27;12.37;;;12.00;;
6693;SDS011;3384;42.628;23.380;2023-09-19T09:01:56;13.23;;;12.23;;
6693;SDS011;3384;42.628;23.380;2023-09-19T09:04:25;13.87;;;13.00;;
6693;SDS011;3384;42.628;23.380;2023-09-19T09:06:53;13.67;;;12.80;;
6693;SDS011;3384;42.628;23.380;2023-09-19T09:09:23;14.50;;;13.23;;
6693;SDS011;3384;42.628;23.380;2023-09-19T09:11:50;13.10;;;12.50;;
6693;SDS011;3384;42.628;23.380;2023-09-19T09:14:18;13.53;;;12.93;;
6693;SDS011;3384;42.628;23.380;2023-09-19T09:16:47;14.63;;;14.03;;
6693;SDS011;3384;42.628;23.380;2023-09-19T09:19:15;14.67;;;13.77;;
6693;SDS011;3384;42.628;23.380;2023-09-19T09:21:50;13.50;;;13.00;;
6693;SDS011;3384;42.628;23.380;2023-09-19T09:24:27;14.07;;;13.47;;
6693;SDS011;3384;42.628;23.380;2023-09-19T09:26:55;13.87;;;13.07;;
6693;SDS011;3384;42.628;23.380;2023-09-19T09:32:17;14.97;;;13.80;;
6693;SDS011;3384;42.628;23.380;2023-09-19T09:34:48;13.73;;;13.23;;
6693;SDS011;3384;42.628;23.380;2023-09-19T09:37:19;14.23;;;13.10;;
6693;SDS011;3384;42.628;23.380;2023-09-19T09:39:50;13.63;;;13.13;;
6693;SDS011;3384;42.628;23.380;2023-09-19T09:42:29;17.93;;;14.97;;
6693;SDS011;3384;42.628;23.380;2023-09-19T09:47:54;14.60;;;13.77;;
6693;SDS011;3384;42.628;23.380;2023-09-19T09:50:27;15.00;;;14.23;;
6693;SDS011;3384;42.628;23.380;2023-09-19T09:53:04;15.63;;;14.53;;
6693;SDS011;3384;42.628;23.380;2023-09-19T09:55:59;32.80;;;14.30;;
6693;SDS011;3384;42.628;23.380;2023-09-19T09:58:30;18.77;;;13.40;;
6693;SDS011;3384;42.628;23.380;2023-09-19T10:00:58;15.17;;;14.10;;
6693;SDS011;3384;42.628;23.380;2023-09-19T10:03:34;14.00;;;13.40;;
6693;SDS011;3384;42.628;23.380;2023-09-19T10:06:06;14.30;;;13.63;;
6693;SDS011;3384;42.628;23.380;2023-09-19T10:09:04;14.13;;;13.40;;
6693;SDS011;3384;42.628;23.380;2023-09-19T10:11:40;14.23;;;13.40;;
6693;SDS011;3384;42.628;23.380;2023-09-19T10:14:09;15.73;;;14.70;;
6693;SDS011;3384;42.628;23.380;2023-09-19T10:16:40;15.50;;;15.00;;
6693;SDS011;3384;42.628;23.380;2023-09-19T10:19:13;16.13;;;15.07;;
6693;SDS011;3384;42.628;23.380;2023-09-19T10:21:41;15.23;;;14.43;;
6693;SDS011;3384;42.628;23.380;2023-09-19T10:24:12;14.40;;;13.60;;
6693;SDS011;3384;42.628;23.380;2023-09-19T10:26:42;15.23;;;14.43;;
6693;SDS011;3384;42.628;23.380;2023-09-19T10:29:11;15.60;;;14.50;;
6693;SDS011;3384;42.628;23.380;2023-09-19T10:31:43;16.03;;;15.23;;
6693;SDS011;3384;42.628;23.380;2023-09-19T10:34:13;15.43;;;14.83;;
6693;SDS011;3384;42.628;23.380;2023-09-19T10:36:44;16.07;;;14.90;;
6693;SDS011;3384;42.628;23.380;2023-09-19T10:39:15;17.37;;;15.40;;
6693;SDS011;3384;42.628;23.380;2023-09-19T10:41:50;16.33;;;15.53;;
6693;SDS011;3384;42.628;23.380;2023-09-19T10:44:21;15.67;;;14.43;;
6693;SDS011;3384;42.628;23.380;2023-09-19T10:46:51;15.40;;;14.70;;
6693;SDS011;3384;42.628;23.380;2023-09-19T10:49:22;16.33;;;15.67;;
6693;SDS011;3384;42.628;23.380;2023-09-19T10:51:51;15.67;;;14.53;;
6693;SDS011;3384;42.628;23.380;2023-09-19T10:54:25;16.30;;;15.10;;
6693;SDS011;3384;42.628;23.380;2023-09-19T10:56:56;16.27;;;15.30;;
6693;SDS011;3384;42.628;23.380;2023-09-19T10:59:25;16.30;;;15.13;;
6693;SDS011;3384;42.628;23.380;2023-09-19T11:01:59;17.23;;;15.87;;
6693;SDS011;3384;42.628;23.380;2023-09-19T11:04:42;18.10;;;15.60;;
6693;SDS011;3384;42.628;23.380;2023-09-19T11:07:13;16.63;;;15.77;;
6693;SDS011;3384;42.628;23.380;2023-09-19T11:09:46;15.80;;;15.00;;
6693;SDS011;3384;42.628;23.380;2023-09-19T11:24:27;16.43;;;15.33;;
6693;SDS011;3384;42.628;23.380;2023-09-19T11:29:42;16.57;;;15.90;;
6693;SDS011;3384;42.628;23.380;2023-09-19T11:32:10;17.10;;;15.50;;
6693;SDS011;3384;42.628;23.380;2023-09-19T11:34:40;21.83;;;16.20;;
6693;SDS011;3384;42.628;23.380;2023-09-19T11:40:44;16.87;;;15.97;;
6693;SDS011;3384;42.628;23.380;2023-09-19T11:43:33;16.93;;;15.50;;
6693;SDS011;3384;42.628;23.380;2023-09-19T11:46:01;17.40;;;16.50;;
6693;SDS011;3384;42.628;23.380;2023-09-19T11:48:32;17.67;;;16.47;;
6693;SDS011;3384;42.628;23.380;2023-09-19T11:51:08;16.13;;;15.40;;
6693;SDS011;3384;42.628;23.380;2023-09-19T11:53:41;15.60;;;14.70;;
6693;SDS011;3384;42.628;23.380;2023-09-19T11:56:09;15.83;;;14.73;;
6693;SDS011;3384;42.628;23.380;2023-09-19T11:58:40;15.73;;;14.90;;
6693;SDS011;3384;42.628;23.380;2023-09-19T12:01:08;17.77;;;16.30;;
6693;SDS011;3384;42.628;23.380;2023-09-19T12:03:40;17.30;;;16.20;;
6693;SDS011;3384;42.628;23.380;2023-09-19T12:06:13;16.67;;;15.83;;
6693;SDS011;3384;42.628;23.380;2023-09-19T12:08:41;16.97;;;16.17;;
6693;SDS011;3384;42.628;23.380;2023-09-19T12:11:12;17.83;;;16.93;;
6693;SDS011;3384;42.628;23.380;2023-09-19T12:13:43;17.07;;;16.17;;
6693;SDS011;3384;42.628;23.380;2023-09-19T12:16:12;16.33;;;15.43;;
6693;SDS011;3384;42.628;23.380;2023-09-19T12:18:41;17.00;;;16.30;;
6693;SDS011;3384;42.628;23.380;2023-09-19T12:21:24;17.57;;;16.50;;
6693;SDS011;3384;42.628;23.380;2023-09-19T12:24:07;16.40;;;15.80;;
6693;SDS011;3384;42.628;23.380;2023-09-19T12:26:41;18.10;;;16.90;;
6693;SDS011;3384;42.628;23.380;2023-09-19T12:29:16;16.57;;;15.57;;
6693;SDS011;3384;42.628;23.380;2023-09-19T12:31:53;17.13;;;16.00;;
6693;SDS011;3384;42.628;23.380;2023-09-19T12:34:26;16.30;;;15.33;;
6693;SDS011;3384;42.628;23.380;2023-09-19T12:37:06;15.83;;;15.10;;
6693;SDS011;3384;42.628;23.380;2023-09-19T12:39:38;15.97;;;15.27;;
6693;SDS011;3384;42.628;23.380;2023-09-19T12:42:07;17.10;;;15.60;;
6693;SDS011;3384;42.628;23.380;2023-09-19T12:44:38;16.57;;;15.60;;
6693;SDS011;3384;42.628;23.380;2023-09-19T12:47:09;17.03;;;15.60;;
6693;SDS011;3384;42.628;23.380;2023-09-19T12:52:44;16.60;;;15.90;;
6693;SDS011;3384;42.628;23.380;2023-09-19T12:55:20;16.20;;;15.50;;
6693;SDS011;3384;42.628;23.380;2023-09-19T13:00:39;17.90;;;16.70;;
6693;SDS011;3384;42.628;23.380;2023-09-19T13:03:13;17.30;;;15.90;;
6693;SDS011;3384;42.628;23.380;2023-09-19T13:05:50;17.63;;;16.53;;
6693;SDS011;3384;42.628;23.380;2023-09-19T13:08:20;16.50;;;15.70;;
6693;SDS011;3384;42.628;23.380;2023-09-19T13:11:05;17.40;;;16.60;;
6693;SDS011;3384;42.628;23.380;2023-09-19T13:13:35;18.07;;;16.37;;
6693;SDS011;3384;42.628;23.380;2023-09-19T13:16:04;18.13;;;17.03;;
6693;SDS011;3384;42.628;23.380;2023-09-19T13:18:46;16.40;;;15.50;;
6693;SDS011;3384;42.628;23.380;2023-09-19T13:21:26;17.20;;;16.17;;
6693;SDS011;3384;42.628;23.380;2023-09-19T13:23:55;16.13;;;15.10;;
6693;SDS011;3384;42.628;23.380;2023-09-19T13:26:24;16.73;;;15.83;;
6693;SDS011;3384;42.628;23.380;2023-09-19T13:28:53;17.70;;;16.53;;
6693;SDS011;3384;42.628;23.380;2023-09-19T13:31:21;16.27;;;15.27;;
6693;SDS011;3384;42.628;23.380;2023-09-19T13:33:49;16.53;;;15.60;;
6693;SDS011;3384;42.628;23.380;2023-09-19T13:36:17;17.33;;;16.43;;
6693;SDS011;3384;42.628;23.380;2023-09-19T13:38:46;16.03;;;15.33;;
6693;SDS011;3384;42.628;23.380;2023-09-19T13:41:14;17.43;;;16.40;;
6693;SDS011;3384;42.628;23.380;2023-09-19T13:43:41;17.93;;;16.13;;
6693;SDS011;3384;42.628;23.380;2023-09-19T13:46:14;17.73;;;16.63;;
6693;SDS011;3384;42.628;23.380;2023-09-19T13:48:44;17.60;;;16.30;;
6693;SDS011;3384;42.628;23.380;2023-09-19T13:51:11;18.33;;;17.10;;
6693;SDS011;3384;42.628;23.380;2023-09-19T13:53:38;17.30;;;16.17;;
6693;SDS011;3384;42.628;23.380;2023-09-19T13:56:05;17.57;;;16.77;;
6693;SDS011;3384;42.628;23.380;2023-09-19T13:58:33;18.10;;;16.70;;
6693;SDS011;3384;42.628;23.380;2023-09-19T14:01:00;17.00;;;16.07;;
6693;SDS011;3384;42.628;23.380;2023-09-19T14:03:28;18.00;;;16.97;;
6693;SDS011;3384;42.628;23.380;2023-09-19T14:05:57;17.67;;;16.90;;
6693;SDS011;3384;42.628;23.380;2023-09-19T14:08:24;19.10;;;17.83;;
6693;SDS011;3384;42.628;23.380;2023-09-19T14:10:51;17.53;;;16.20;;
6693;SDS011;3384;42.628;23.380;2023-09-19T14:13:18;17.00;;;16.20;;
6693;SDS011;3384;42.628;23.380;2023-09-19T14:15:45;19.07;;;17.77;;
6693;SDS011;3384;42.628;23.380;2023-09-19T14:18:12;17.70;;;16.77;;
6693;SDS011;3384;42.628;23.380;2023-09-19T14:20:39;19.07;;;17.43;;
6693;SDS011;3384;42.628;23.380;2023-09-19T14:23:08;19.37;;;17.70;;
6693;SDS011;3384;42.628;23.380;2023-09-19T14:25:35;19.57;;;18.03;;
6693;SDS011;3384;42.628;23.380;2023-09-19T14:28:04;18.63;;;17.43;;
6693;SDS011;3384;42.628;23.380;2023-09-19T14:30:33;19.83;;;18.37;;
6693;SDS011;3384;42.628;23.380;2023-09-19T14:33:00;18.23;;;17.13;;
6693;SDS011;3384;42.628;23.380;2023-09-19T14:35:27;17.10;;;16.20;;
6693;SDS011;3384;42.628;23.380;2023-09-19T14:37:54;17.93;;;16.90;;
6693;SDS011;3384;42.628;23.380;2023-09-19T14:40:23;18.33;;;16.83;;
6693;SDS011;3384;42.628;23.380;2023-09-19T14:42:50;17.70;;;16.70;;
6693;SDS011;3384;42.628;23.380;2023-09-19T14:45:20;18.43;;;17.30;;
6693;SDS011;3384;42.628;23.380;2023-09-19T14:47:51;17.63;;;16.83;;
6693;SDS011;3384;42.628;23.380;2023-09-19T14:50:19;18.80;;;18.00;;
6693;SDS011;3384;42.628;23.380;2023-09-19T14:52:47;18.70;;;17.47;;
6693;SDS011;3384;42.628;23.380;2023-09-19T14:55:15;18.03;;;16.80;;
6693;SDS011;3384;42.628;23.380;2023-09-19T14:57:50;17.90;;;16.97;;
6693;SDS011;3384;42.628;23.380;2023-09-19T15:00:18;18.10;;;16.97;;
6693;SDS011;3384;42.628;23.380;2023-09-19T15:02:46;17.83;;;17.03;;
6693;SDS011;3384;42.628;23.380;2023-09-19T15:05:18;21.93;;;17.67;;
6693;SDS011;3384;42.628;23.380;2023-09-19T15:07:47;18.67;;;17.77;;
6693;SDS011;3384;42.628;23.380;2023-09-19T15:10:14;19.77;;;18.40;;
6693;SDS011;3384;42.628;23.380;2023-09-19T15:12:43;18.40;;;17.10;;
6693;SDS011;3384;42.628;23.380;2023-09-19T15:15:12;17.43;;;16.60;;
6693;SDS011;3384;42.628;23.380;2023-09-19T15:17:39;18.63;;;17.30;;
6693;SDS011;3384;42.628;23.380;2023-09-19T15:20:09;19.00;;;17.33;;
6693;SDS011;3384;42.628;23.380;2023-09-19T15:22:39;18.43;;;17.53;;
6693;SDS011;3384;42.628;23.380;2023-09-19T15:25:08;20.10;;;18.87;;
6693;SDS011;3384;42.628;23.380;2023-09-19T15:27:35;19.10;;;17.20;;
6693;SDS011;3384;42.628;23.380;2023-09-19T15:30:02;18.50;;;17.50;;
6693;SDS011;3384;42.628;23.380;2023-09-19T15:32:37;18.70;;;17.37;;
6693;SDS011;3384;42.628;23.380;2023-09-19T15:35:05;18.60;;;17.60;;
6693;SDS011;3384;42.628;23.380;2023-09-19T15:37:35;18.97;;;17.83;;
6693;SDS011;3384;42.628;23.380;2023-09-19T15:40:05;20.00;;;18.67;;
6693;SDS011;3384;42.628;23.380;2023-09-19T15:42:36;19.30;;;17.93;;
6693;SDS011;3384;42.628;23.380;2023-09-19T15:45:03;20.07;;;18.43;;
6693;SDS011;3384;42.628;23.380;2023-09-19T15:47:36;19.47;;;17.70;;
6693;SDS011;3384;42.628;23.380;2023-09-19T15:50:04;19.63;;;18.30;;
6693;SDS011;3384;42.628;23.380;2023-09-19T15:52:38;20.33;;;18.70;;
6693;SDS011;3384;42.628;23.380;2023-09-19T15:55:10;18.63;;;17.43;;
6693;SDS011;3384;42.628;23.380;2023-09-19T15:57:37;18.77;;;17.40;;
6693;SDS011;3384;42.628;23.380;2023-09-19T16:00:05;18.20;;;16.77;;
6693;SDS011;3384;42.628;23.380;2023-09-19T16:02:43;21.23;;;17.50;;